Terminal Aerodrome Forecast
Issued by NWS

Home | Current Version | Previous Version | Text Only | Print | Product List | Glossary On
Versions: 1 2 3 4 5 6 7 8 9 10 11 12
866
FTPA31 PHFO 221131
TAFHJR
TAF
PHJR 221131Z 2212/2312 06012G22KT P6SM FEW030 SCT045
     FM222000 06012G20KT P6SM FEW030 SCT045 BKN200
     FM230300 06008G15KT P6SM FEW030 BKN045=

USA.gov is the U.S. government's official web portal to all federal, state and local government web resources and services.